Time;durP1;ratioP1;P1;durP2;ratioP2;P2;SDS_P1;SDS_P2;PMS_P1;PMS_P2;Temp;Humidity;BMP_temperature;BMP_pressure;BME280_temperature;BME280_humidity;BME280_pressure;Samples;Min_cycle;Max_cycle;Signal;HPM_P1;HPM_P2
2024/01/05 00:00:36;;;;;;;8.13;2.07;;;22.60;99.90;;;;;;4970521;28;20190;-74
2024/01/05 00:03:04;;;;;;;8.00;1.80;;;22.60;99.90;;;;;;4975166;28;20187;-75
2024/01/05 00:05:32;;;;;;;10.27;2.60;;;22.60;99.90;;;;;;4991322;28;20194;-77
2024/01/05 00:07:59;;;;;;;13.23;2.00;;;22.70;99.90;;;;;;4989543;28;20257;-81
2024/01/05 00:10:26;;;;;;;10.63;1.87;;;22.70;99.90;;;;;;4998719;28;20290;-77
2024/01/05 00:12:54;;;;;;;6.07;1.80;;;22.80;99.90;;;;;;4974069;28;20675;-78
2024/01/05 00:15:21;;;;;;;7.07;1.67;;;23.00;99.90;;;;;;4990758;28;20186;-76
2024/01/05 00:17:49;;;;;;;10.77;1.80;;;22.90;99.90;;;;;;4983817;28;20190;-76
2024/01/05 00:20:16;;;;;;;6.23;2.30;;;22.90;99.90;;;;;;4984376;28;20220;-75
2024/01/05 00:22:43;;;;;;;13.30;2.33;;;22.80;99.90;;;;;;4989473;28;20222;-75
2024/01/05 00:25:11;;;;;;;12.27;2.13;;;22.70;99.90;;;;;;4982869;28;20237;-75
2024/01/05 00:27:38;;;;;;;8.80;2.07;;;22.80;99.90;;;;;;4982281;28;20364;-76
2024/01/05 00:30:06;;;;;;;9.40;1.87;;;22.80;99.90;;;;;;4983184;28;20665;-76
2024/01/05 00:32:33;;;;;;;17.13;2.43;;;22.90;99.90;;;;;;4982351;28;20676;-75
2024/01/05 00:35:01;;;;;;;8.57;2.00;;;23.00;99.90;;;;;;4981771;28;20217;-75
2024/01/05 00:37:28;;;;;;;6.07;1.50;;;23.10;99.90;;;;;;4980488;28;20652;-75
2024/01/05 00:39:55;;;;;;;5.70;1.53;;;23.20;99.90;;;;;;4982543;28;20226;-75
2024/01/05 00:42:23;;;;;;;6.93;1.53;;;23.30;99.90;;;;;;4990591;28;20543;-74
2024/01/05 00:44:50;;;;;;;7.70;1.40;;;23.60;99.90;;;;;;4992228;28;20193;-75
2024/01/05 00:47:17;;;;;;;8.17;1.67;;;23.80;99.90;;;;;;4993003;28;20236;-75
2024/01/05 00:49:44;;;;;;;8.33;1.53;;;24.10;99.90;;;;;;4993470;28;20647;-75
2024/01/05 00:52:12;;;;;;;4.37;1.20;;;24.10;99.90;;;;;;4993423;28;20217;-75
2024/01/05 00:54:40;;;;;;;3.37;1.00;;;24.10;99.90;;;;;;4993536;28;20174;-74
2024/01/05 00:57:08;;;;;;;6.47;1.70;;;24.30;99.90;;;;;;4993446;28;20179;-73
2024/01/05 00:59:35;;;;;;;4.07;1.43;;;24.50;99.90;;;;;;4993633;28;20178;-75
2024/01/05 01:02:02;;;;;;;6.33;1.37;;;24.70;99.90;;;;;;4993647;28;20408;-74
2024/01/05 01:04:30;;;;;;;9.73;1.50;;;24.70;99.90;;;;;;4989854;28;20178;-75
2024/01/05 01:06:57;;;;;;;5.73;1.63;;;24.80;99.90;;;;;;4993407;28;20217;-75
2024/01/05 01:09:24;;;;;;;6.07;1.50;;;25.00;99.90;;;;;;4993491;28;20186;-74
2024/01/05 01:11:52;;;;;;;5.07;1.20;;;24.90;99.90;;;;;;4993418;28;20202;-74
2024/01/05 01:14:19;;;;;;;8.03;1.70;;;25.20;99.90;;;;;;4977270;28;20185;-80
2024/01/05 01:16:47;;;;;;;6.87;1.10;;;25.40;99.90;;;;;;4979886;28;20206;-76
2024/01/05 01:19:14;;;;;;;8.83;1.53;;;25.70;99.90;;;;;;4972450;28;20187;-77
2024/01/05 01:21:41;;;;;;;7.60;1.37;;;25.80;99.90;;;;;;4972376;28;20534;-78
2024/01/05 01:24:09;;;;;;;8.17;1.30;;;25.80;99.90;;;;;;4970824;28;20183;-78
2024/01/05 01:26:38;;;;;;;4.67;1.53;;;25.80;99.90;;;;;;4983153;28;20236;-79
2024/01/05 01:29:08;;;;;;;6.90;1.80;;;26.00;99.90;;;;;;4991675;28;20175;-78
2024/01/05 01:31:35;;;;;;;4.60;1.23;;;26.10;99.90;;;;;;4992148;28;20233;-74
2024/01/05 01:34:03;;;;;;;5.07;1.30;;;26.00;99.90;;;;;;4995384;28;20178;-77
2024/01/05 01:36:30;;;;;;;8.43;1.47;;;26.10;99.90;;;;;;4995479;28;20260;-75
2024/01/05 01:38:58;;;;;;;5.27;1.10;;;26.00;99.90;;;;;;4994964;28;20235;-78
2024/01/05 01:41:25;;;;;;;4.27;1.10;;;26.10;99.90;;;;;;4995702;28;20197;-77
2024/01/05 01:43:52;;;;;;;4.60;1.37;;;26.20;99.90;;;;;;4995294;28;20282;-76
2024/01/05 01:46:20;;;;;;;7.53;1.30;;;26.30;99.90;;;;;;4995131;28;20637;-78
2024/01/05 01:48:48;;;;;;;4.57;1.07;;;26.30;99.90;;;;;;4996782;28;20178;-75
2024/01/05 01:51:15;;;;;;;8.53;1.73;;;26.50;99.90;;;;;;4982520;28;20688;-78
2024/01/05 01:53:44;;;;;;;4.30;1.07;;;26.40;99.90;;;;;;4958575;28;20646;-76
2024/01/05 01:56:13;;;;;;;5.83;1.50;;;26.30;99.90;;;;;;4975498;28;20247;-78
2024/01/05 01:58:42;;;;;;;3.50;1.10;;;26.30;99.90;;;;;;4975876;28;20645;-74
2024/01/05 02:01:11;;;;;;;2.67;0.93;;;26.30;99.90;;;;;;4974087;28;20180;-79
2024/01/05 02:03:40;;;;;;;4.60;1.03;;;26.10;99.90;;;;;;4983901;28;20196;-77
2024/01/05 02:06:08;;;;;;;7.37;1.50;;;26.00;99.90;;;;;;4995115;28;20182;-76
2024/01/05 02:08:36;;;;;;;2.27;1.00;;;25.90;99.90;;;;;;4994520;28;20686;-77
2024/01/05 02:11:03;;;;;;;4.63;1.20;;;26.00;99.90;;;;;;4994971;28;20660;-76
2024/01/05 02:13:32;;;;;;;6.13;1.27;;;26.20;99.90;;;;;;4983487;28;20232;-75
2024/01/05 02:16:00;;;;;;;3.97;1.03;;;26.20;99.90;;;;;;4994251;28;20193;-76
2024/01/05 02:18:28;;;;;;;5.00;1.10;;;26.10;99.90;;;;;;4994731;28;20174;-75
2024/01/05 02:20:58;;;;;;;6.53;1.07;;;26.40;99.90;;;;;;4988624;28;20171;-77
2024/01/05 02:23:31;;;;;;;4.00;1.03;;;26.60;99.90;;;;;;4979909;28;20183;-73
2024/01/05 02:26:00;;;;;;;3.87;1.27;;;26.60;99.90;;;;;;4994508;28;20183;-77
2024/01/05 02:28:28;;;;;;;6.27;1.13;;;26.60;99.90;;;;;;4994627;28;20229;-77
2024/01/05 02:30:56;;;;;;;7.13;1.37;;;26.70;99.90;;;;;;4994044;28;20217;-78
2024/01/05 02:33:24;;;;;;;8.43;1.50;;;26.70;99.90;;;;;;4987739;28;20188;-73
2024/01/05 02:35:52;;;;;;;5.63;1.30;;;26.80;99.90;;;;;;4975103;28;20861;-78
2024/01/05 02:38:20;;;;;;;5.33;1.13;;;26.60;99.90;;;;;;4973148;28;20856;-78
2024/01/05 02:40:47;;;;;;;4.57;1.33;;;26.70;99.90;;;;;;4975105;28;20209;-75
2024/01/05 02:43:15;;;;;;;10.37;1.33;;;26.40;99.90;;;;;;4976687;28;20233;-76
2024/01/05 02:45:43;;;;;;;4.77;1.23;;;26.10;99.90;;;;;;4993694;28;20270;-76
2024/01/05 02:48:11;;;;;;;7.40;1.70;;;26.20;99.90;;;;;;4993931;28;20225;-74
2024/01/05 02:50:39;;;;;;;4.93;1.60;;;26.30;99.90;;;;;;4992929;28;20293;-78
2024/01/05 02:53:06;;;;;;;8.90;1.57;;;27.00;99.90;;;;;;4991165;28;20254;-75
2024/01/05 02:55:34;;;;;;;6.50;1.50;;;27.30;99.90;;;;;;4974656;28;20185;-74
2024/01/05 02:58:05;;;;;;;5.33;1.50;;;27.00;99.90;;;;;;4974810;28;20214;-75
2024/01/05 03:00:32;;;;;;;6.63;1.40;;;26.70;99.90;;;;;;4974250;28;20230;-76
2024/01/05 03:03:00;;;;;;;6.13;2.07;;;26.40;99.90;;;;;;4987442;28;20212;-75
2024/01/05 03:05:28;;;;;;;6.50;1.70;;;26.40;99.90;;;;;;4974595;28;20249;-78
2024/01/05 03:07:55;;;;;;;9.03;1.73;;;26.20;99.90;;;;;;4973083;28;20187;-74
2024/01/05 03:10:23;;;;;;;6.70;1.30;;;26.20;99.90;;;;;;4974414;28;20234;-76
2024/01/05 03:12:51;;;;;;;5.00;1.40;;;26.00;99.90;;;;;;4974269;28;20234;-74
2024/01/05 03:15:19;;;;;;;8.67;1.10;;;25.80;99.90;;;;;;4979453;28;20182;-77
2024/01/05 03:17:47;;;;;;;7.90;2.53;;;25.90;99.90;;;;;;4991501;28;20200;-77
2024/01/05 03:20:17;;;;;;;6.13;1.40;;;26.40;99.90;;;;;;4993627;28;20178;-76
2024/01/05 03:22:45;;;;;;;4.47;1.33;;;26.70;99.90;;;;;;4985297;28;20207;-76
2024/01/05 03:25:12;;;;;;;7.57;1.37;;;27.20;99.90;;;;;;4989799;28;20186;-75
2024/01/05 03:27:40;;;;;;;4.50;1.00;;;27.60;99.90;;;;;;4992361;28;20178;-76
2024/01/05 03:30:08;;;;;;;6.13;1.20;;;28.60;99.90;;;;;;4991499;28;20318;-74
2024/01/05 03:32:36;;;;;;;3.27;1.10;;;29.10;99.90;;;;;;4977617;28;20266;-73
2024/01/05 03:35:04;;;;;;;3.33;1.17;;;29.70;99.90;;;;;;4977257;28;20221;-75
2024/01/05 03:37:32;;;;;;;3.83;1.20;;;29.50;99.90;;;;;;4981764;28;20190;-75
2024/01/05 03:40:00;;;;;;;4.97;1.13;;;28.60;99.90;;;;;;4994160;28;20249;-74
2024/01/05 03:42:27;;;;;;;5.60;1.10;;;28.60;99.90;;;;;;4994069;28;20191;-75
2024/01/05 03:44:55;;;;;;;3.73;1.10;;;28.50;99.90;;;;;;4994071;28;20178;-76
2024/01/05 03:47:23;;;;;;;8.47;1.33;;;27.80;99.90;;;;;;4985150;28;20191;-74
2024/01/05 03:49:50;;;;;;;3.53;1.30;;;27.20;99.90;;;;;;4976244;28;20622;-73
2024/01/05 03:52:18;;;;;;;6.20;1.73;;;26.50;99.90;;;;;;4985423;28;20221;-74
2024/01/05 03:54:46;;;;;;;5.17;1.60;;;26.20;99.90;;;;;;4983207;28;20179;-74
2024/01/05 03:57:13;;;;;;;8.37;1.30;;;26.00;99.90;;;;;;4983954;28;20273;-72
2024/01/05 03:59:45;;;;;;;7.67;1.10;;;25.90;99.90;;;;;;4980080;28;20179;-74
2024/01/05 04:02:13;;;;;;;5.03;1.47;;;25.80;99.90;;;;;;4982706;28;20214;-75
2024/01/05 04:04:43;;;;;;;7.87;1.50;;;25.90;99.90;;;;;;4985045;28;20175;-77
2024/01/05 04:07:11;;;;;;;9.20;1.43;;;26.10;99.90;;;;;;4983608;28;20175;-74
2024/01/05 04:09:38;;;;;;;8.30;1.47;;;26.10;99.90;;;;;;4985742;28;20550;-76
2024/01/05 04:12:07;;;;;;;6.80;1.43;;;26.30;99.90;;;;;;4986240;28;20213;-76
2024/01/05 04:14:35;;;;;;;7.13;1.20;;;26.30;99.90;;;;;;4984421;28;20202;-75
2024/01/05 04:17:03;;;;;;;3.93;1.20;;;27.00;99.90;;;;;;4961447;28;20562;-74
2024/01/05 04:19:31;;;;;;;4.87;1.10;;;27.40;99.90;;;;;;4992737;28;20175;-79
2024/01/05 04:21:59;;;;;;;6.30;1.50;;;27.70;99.90;;;;;;4992745;28;20190;-74
2024/01/05 04:24:27;;;;;;;6.27;1.67;;;28.20;99.90;;;;;;4992711;28;20555;-76
2024/01/05 04:26:58;;;;;;;7.93;1.37;;;28.00;99.90;;;;;;4991123;28;20815;-74
2024/01/05 04:29:25;;;;;;;4.83;1.43;;;27.80;99.90;;;;;;4992663;28;20186;-73
2024/01/05 04:31:53;;;;;;;4.87;1.10;;;27.90;99.90;;;;;;4991803;28;20217;-74
2024/01/05 04:34:24;;;;;;;4.93;1.20;;;27.90;99.90;;;;;;4992174;28;20220;-74
2024/01/05 04:36:52;;;;;;;4.90;1.00;;;27.70;99.90;;;;;;4992503;28;20208;-77
2024/01/05 04:39:21;;;;;;;4.87;1.33;;;27.20;99.90;;;;;;4991899;28;20230;-75
2024/01/05 04:41:49;;;;;;;5.73;1.30;;;27.10;99.90;;;;;;4992239;28;20249;-78
2024/01/05 04:44:16;;;;;;;7.57;1.20;;;27.30;99.90;;;;;;4990675;28;20630;-74
2024/01/05 04:46:44;;;;;;;3.87;1.23;;;27.30;99.90;;;;;;4990382;28;20189;-73
2024/01/05 04:49:12;;;;;;;5.13;1.20;;;27.20;99.90;;;;;;4992149;28;20170;-75
2024/01/05 04:51:39;;;;;;;12.67;1.20;;;27.00;99.90;;;;;;4992093;28;20213;-73
2024/01/05 04:54:07;;;;;;;3.57;0.90;;;26.60;99.90;;;;;;4991649;28;20181;-78
2024/01/05 04:56:35;;;;;;;6.73;1.17;;;26.60;99.90;;;;;;4992071;28;20178;-74
2024/01/05 04:59:02;;;;;;;6.63;1.23;;;26.70;99.90;;;;;;4991992;28;20265;-75
2024/01/05 05:01:30;;;;;;;4.90;0.90;;;26.60;99.90;;;;;;4991544;28;20178;-73
2024/01/05 05:03:58;;;;;;;6.77;1.30;;;26.50;99.90;;;;;;4991903;28;20183;-77
2024/01/05 05:06:27;;;;;;;5.10;0.93;;;26.40;99.90;;;;;;4991264;28;20207;-75
2024/01/05 05:08:55;;;;;;;3.93;0.97;;;26.20;99.90;;;;;;4991492;28;20214;-75
2024/01/05 05:11:23;;;;;;;6.80;1.67;;;26.30;99.90;;;;;;4991864;28;20210;-74
2024/01/05 05:13:50;;;;;;;2.57;1.17;;;26.20;99.90;;;;;;4991843;28;20205;-75
2024/01/05 05:16:18;;;;;;;6.87;1.27;;;26.50;99.90;;;;;;4991381;28;20175;-74
2024/01/05 05:18:47;;;;;;;4.47;1.67;;;26.90;99.90;;;;;;4991809;28;20179;-73
2024/01/05 05:21:15;;;;;;;7.50;1.10;;;26.80;99.90;;;;;;4991963;28;20178;-77
2024/01/05 05:23:43;;;;;;;4.33;1.23;;;26.50;99.90;;;;;;4991543;28;20174;-76
2024/01/05 05:26:11;;;;;;;6.13;1.10;;;26.60;99.90;;;;;;5006958;28;20273;-73
2024/01/05 05:28:38;;;;;;;4.17;1.23;;;26.60;99.90;;;;;;4991948;28;20178;-74
2024/01/05 05:31:06;;;;;;;4.07;1.03;;;26.90;99.90;;;;;;4991417;28;20183;-72
2024/01/05 05:33:34;;;;;;;6.47;0.80;;;26.90;99.90;;;;;;4991662;28;20183;-74
2024/01/05 05:36:02;;;;;;;4.87;1.10;;;27.00;99.90;;;;;;4991857;28;20608;-74
2024/01/05 05:38:29;;;;;;;6.77;1.47;;;27.00;99.90;;;;;;4991043;28;20233;-74
2024/01/05 05:40:57;;;;;;;5.60;1.07;;;26.70;99.90;;;;;;4991676;28;20183;-73
2024/01/05 05:43:24;;;;;;;4.93;1.07;;;26.60;99.90;;;;;;4991487;28;20204;-72
2024/01/05 05:45:52;;;;;;;6.87;0.77;;;26.50;99.90;;;;;;4991292;28;20558;-74
2024/01/05 05:48:20;;;;;;;6.83;0.93;;;26.30;99.90;;;;;;4991582;28;20175;-73
2024/01/05 05:50:48;;;;;;;10.20;1.30;;;26.20;99.90;;;;;;4991336;28;20252;-72
2024/01/05 05:53:15;;;;;;;5.63;1.10;;;26.20;99.90;;;;;;4991064;28;20245;-73
2024/01/05 05:55:43;;;;;;;4.83;0.93;;;26.90;99.90;;;;;;4991447;28;20198;-74
2024/01/05 05:58:11;;;;;;;4.90;1.30;;;27.30;99.90;;;;;;4977513;28;20809;-73
2024/01/05 06:00:38;;;;;;;7.60;1.00;;;27.30;99.90;;;;;;4984351;28;20593;-73
2024/01/05 06:03:06;;;;;;;8.43;1.40;;;26.90;99.90;;;;;;4991497;28;20183;-74
2024/01/05 06:05:34;;;;;;;4.03;0.90;;;26.70;99.90;;;;;;4991429;28;20182;-73
2024/01/05 06:08:02;;;;;;;8.97;1.13;;;26.90;99.90;;;;;;4990991;28;20597;-74
2024/01/05 06:10:29;;;;;;;3.30;0.90;;;27.20;99.90;;;;;;4991258;28;20191;-72
2024/01/05 06:12:57;;;;;;;3.97;0.90;;;27.30;99.90;;;;;;4991347;28;20219;-75
2024/01/05 06:15:25;;;;;;;4.90;1.10;;;27.30;99.90;;;;;;4990777;28;20189;-74
2024/01/05 06:17:52;;;;;;;4.37;1.30;;;27.20;99.90;;;;;;4992679;28;20545;-74
2024/01/05 06:20:20;;;;;;;4.07;0.90;;;27.30;99.90;;;;;;4994745;28;20519;-77
2024/01/05 06:22:48;;;;;;;2.87;0.70;;;27.20;99.90;;;;;;4994231;28;20182;-74
2024/01/05 06:25:15;;;;;;;2.50;0.90;;;26.70;99.90;;;;;;4994685;28;20273;-74
2024/01/05 06:27:43;;;;;;;3.53;1.20;;;26.50;99.90;;;;;;4993439;28;20625;-74
2024/01/05 06:30:11;;;;;;;3.13;0.90;;;26.50;99.90;;;;;;4994236;28;20691;-74
2024/01/05 06:32:39;;;;;;;4.90;1.17;;;26.70;99.90;;;;;;4994575;28;20222;-73
2024/01/05 06:35:07;;;;;;;7.70;1.07;;;26.90;99.90;;;;;;4994597;28;20186;-74
2024/01/05 06:37:35;;;;;;;6.03;1.27;;;27.00;99.90;;;;;;4992814;28;20596;-74
2024/01/05 06:40:03;;;;;;;5.10;0.90;;;27.00;99.90;;;;;;4994541;28;20778;-77
2024/01/05 06:42:30;;;;;;;5.27;1.60;;;26.80;99.90;;;;;;4994485;28;20723;-75
2024/01/05 06:44:58;;;;;;;4.90;1.00;;;26.80;99.90;;;;;;4993866;28;20179;-72
2024/01/05 06:47:27;;;;;;;4.77;0.90;;;26.80;99.90;;;;;;4993172;28;20325;-77
2024/01/05 06:49:54;;;;;;;3.53;1.13;;;26.60;99.90;;;;;;4994310;28;20917;-75
2024/01/05 06:52:22;;;;;;;2.10;0.93;;;26.40;99.90;;;;;;4993827;28;20218;-76
2024/01/05 06:54:50;;;;;;;5.23;1.13;;;26.30;99.90;;;;;;4994142;28;20692;-74
2024/01/05 06:57:17;;;;;;;2.00;1.00;;;26.00;99.90;;;;;;4994273;28;20571;-75
2024/01/05 06:59:46;;;;;;;4.77;1.00;;;25.70;99.90;;;;;;4993829;28;20306;-73
2024/01/05 07:02:13;;;;;;;7.30;1.40;;;25.60;99.90;;;;;;4994141;28;20320;-74
2024/01/05 07:04:41;;;;;;;4.70;1.20;;;25.50;99.90;;;;;;4992778;28;20534;-77
2024/01/05 07:07:09;;;;;;;4.93;1.27;;;25.80;99.90;;;;;;4992252;28;20186;-78
2024/01/05 07:09:37;;;;;;;5.23;0.90;;;26.00;99.90;;;;;;4994193;28;20265;-73
2024/01/05 07:12:05;;;;;;;5.53;1.13;;;25.80;99.90;;;;;;4994018;28;20217;-73
2024/01/05 07:14:32;;;;;;;5.67;0.97;;;25.50;99.90;;;;;;4993636;28;20588;-72
2024/01/05 07:17:00;;;;;;;4.33;1.10;;;25.00;99.90;;;;;;4993898;28;20555;-76
2024/01/05 07:19:28;;;;;;;4.93;1.10;;;24.80;99.90;;;;;;4993998;28;20599;-74
2024/01/05 07:21:55;;;;;;;5.77;1.03;;;24.70;99.90;;;;;;4993427;28;20261;-76
2024/01/05 07:24:23;;;;;;;4.30;1.10;;;24.80;99.90;;;;;;4993753;28;20170;-74
2024/01/05 07:26:51;;;;;;;3.50;1.03;;;24.80;99.90;;;;;;4993732;28;20183;-74
2024/01/05 07:29:18;;;;;;;7.23;1.00;;;25.00;99.90;;;;;;4992536;28;20182;-73
2024/01/05 07:31:46;;;;;;;3.30;0.80;;;25.10;99.90;;;;;;4993212;28;20209;-75
2024/01/05 07:34:14;;;;;;;3.63;1.00;;;25.00;99.90;;;;;;4993612;28;20229;-75
2024/01/05 07:36:44;;;;;;;6.10;1.13;;;25.00;99.90;;;;;;4992981;28;20193;-72
2024/01/05 07:39:12;;;;;;;5.60;1.20;;;24.90;99.90;;;;;;4992943;28;20285;-77
2024/01/05 07:41:40;;;;;;;7.73;1.27;;;25.10;99.90;;;;;;4994694;28;20268;-76
2024/01/05 07:44:08;;;;;;;4.10;1.40;;;24.90;99.90;;;;;;4994855;28;20182;-74
2024/01/05 07:46:45;;;;;;;4.80;1.10;;;24.90;99.90;;;;;;4994774;28;20174;-75
2024/01/05 07:49:13;;;;;;;3.50;1.20;;;25.00;99.90;;;;;;4994904;28;20629;-74
2024/01/05 07:51:41;;;;;;;5.43;1.37;;;24.90;99.90;;;;;;4994771;28;20214;-74
2024/01/05 07:54:08;;;;;;;6.67;1.50;;;24.90;99.90;;;;;;4994623;28;20656;-75
2024/01/05 07:56:39;;;;;;;7.00;1.23;;;25.00;99.90;;;;;;4994777;28;20194;-73
2024/01/05 07:59:07;;;;;;;4.40;1.10;;;25.10;99.90;;;;;;4994851;28;20245;-73
2024/01/05 08:01:34;;;;;;;4.30;0.90;;;25.10;99.90;;;;;;4994721;28;20175;-74
2024/01/05 08:04:03;;;;;;;6.40;1.07;;;24.90;99.90;;;;;;4994696;28;20274;-73
2024/01/05 08:06:30;;;;;;;5.07;1.30;;;24.90;99.90;;;;;;4994724;28;20179;-74
2024/01/05 08:08:58;;;;;;;4.07;1.20;;;24.90;99.90;;;;;;4994369;28;20844;-73
2024/01/05 08:11:26;;;;;;;3.70;1.30;;;24.80;99.90;;;;;;4994373;28;20210;-77
2024/01/05 08:13:54;;;;;;;6.50;1.03;;;24.40;99.90;;;;;;4994342;28;20186;-75
2024/01/05 08:16:21;;;;;;;4.17;0.93;;;24.20;99.90;;;;;;4994331;28;20186;-74
2024/01/05 08:18:49;;;;;;;5.53;1.33;;;24.00;99.90;;;;;;4990629;28;20591;-73
2024/01/05 08:21:17;;;;;;;5.83;1.17;;;23.90;99.90;;;;;;4994437;28;20182;-73
2024/01/05 08:23:44;;;;;;;4.13;1.20;;;24.00;99.90;;;;;;4994104;28;20720;-74
2024/01/05 08:26:18;;;;;;;7.43;1.30;;;24.00;99.90;;;;;;4994239;28;20675;-73
2024/01/05 08:28:47;;;;;;;4.83;1.17;;;24.00;99.90;;;;;;4993990;28;20209;-74
2024/01/05 08:31:15;;;;;;;5.67;0.90;;;23.90;99.90;;;;;;4994006;28;20277;-74
2024/01/05 08:33:43;;;;;;;4.63;1.20;;;23.70;99.90;;;;;;4994223;28;20193;-74
2024/01/05 08:36:11;;;;;;;5.60;1.30;;;23.50;99.90;;;;;;4993897;28;20182;-74
2024/01/05 08:38:39;;;;;;;10.87;1.97;;;23.30;99.90;;;;;;4993595;28;20364;-74
2024/01/05 08:41:06;;;;;;;6.40;1.40;;;23.20;99.90;;;;;;4994149;28;20609;-74
2024/01/05 08:43:34;;;;;;;5.47;1.50;;;23.00;99.90;;;;;;4992412;28;20187;-74
2024/01/05 08:46:02;;;;;;;6.23;1.23;;;22.80;99.90;;;;;;4993870;28;20268;-74
2024/01/05 08:48:30;;;;;;;7.70;1.27;;;22.70;99.90;;;;;;4993871;28;20271;-74
2024/01/05 08:50:57;;;;;;;8.53;1.50;;;22.60;99.90;;;;;;4992819;28;20186;-74
2024/01/05 08:53:25;;;;;;;7.87;1.90;;;22.50;99.90;;;;;;4993584;28;20268;-74
2024/01/05 08:55:53;;;;;;;9.20;1.73;;;22.40;99.90;;;;;;4993720;28;20186;-74
2024/01/05 08:58:20;;;;;;;5.73;1.40;;;22.40;99.90;;;;;;4993545;28;20655;-74
2024/01/05 09:00:48;;;;;;;6.97;1.30;;;22.30;99.90;;;;;;4993733;28;20683;-74
2024/01/05 09:03:16;;;;;;;9.07;1.43;;;22.20;99.90;;;;;;4993576;28;20172;-74
2024/01/05 09:05:45;;;;;;;7.03;1.10;;;22.10;99.90;;;;;;4996285;28;20210;-74
2024/01/05 09:08:12;;;;;;;5.17;1.70;;;22.00;99.90;;;;;;4994778;28;20182;-74
2024/01/05 09:10:40;;;;;;;7.37;1.17;;;21.90;99.90;;;;;;4995765;28;20177;-74
2024/01/05 09:13:08;;;;;;;3.17;1.33;;;21.80;99.90;;;;;;4997504;28;20240;-74
2024/01/05 09:15:36;;;;;;;8.00;3.07;;;21.80;99.90;;;;;;4996373;28;20212;-74
2024/01/05 09:18:05;;;;;;;6.63;1.40;;;21.70;99.90;;;;;;4993614;28;20183;-74
2024/01/05 09:20:32;;;;;;;6.27;1.40;;;21.60;99.90;;;;;;4993325;28;20182;-74
2024/01/05 09:23:00;;;;;;;6.03;1.47;;;21.60;99.90;;;;;;4993387;28;20202;-74
2024/01/05 09:25:29;;;;;;;5.70;1.30;;;21.50;99.90;;;;;;4993484;28;20269;-74
2024/01/05 09:28:00;;;;;;;5.97;1.30;;;21.50;99.90;;;;;;4993682;28;20269;-74
2024/01/05 09:30:27;;;;;;;4.73;1.50;;;21.50;99.90;;;;;;4993172;28;20251;-73
2024/01/05 09:32:57;;;;;;;10.40;1.53;;;21.40;99.90;;;;;;4983595;28;20593;-74
2024/01/05 09:35:25;;;;;;;5.13;1.43;;;21.30;99.90;;;;;;4991953;28;20190;-74
2024/01/05 09:37:53;;;;;;;11.00;1.83;;;21.30;99.90;;;;;;4993316;28;20511;-73
2024/01/05 09:40:23;;;;;;;8.30;1.47;;;21.20;99.90;;;;;;4993193;28;20324;-74
2024/01/05 09:42:51;;;;;;;6.23;1.43;;;21.20;99.90;;;;;;4993096;28;20560;-74
2024/01/05 09:45:23;;;;;;;7.07;1.53;;;21.10;99.90;;;;;;4993236;28;20190;-74
2024/01/05 09:47:51;;;;;;;7.47;1.50;;;21.10;99.90;;;;;;4993522;28;20274;-74
2024/01/05 09:50:19;;;;;;;7.07;1.50;;;21.10;99.90;;;;;;4993516;28;20181;-74
2024/01/05 09:52:47;;;;;;;6.20;1.60;;;21.00;99.90;;;;;;4994403;28;20216;-73
2024/01/05 09:55:15;;;;;;;10.70;1.77;;;21.00;99.90;;;;;;4996999;28;20189;-74
2024/01/05 09:57:43;;;;;;;8.47;2.00;;;21.00;99.90;;;;;;4997139;28;20323;-74
2024/01/05 10:00:15;;;;;;;10.50;1.63;;;21.00;99.90;;;;;;4997021;28;20261;-74
2024/01/05 10:03:04;;;;;;;9.53;1.30;;;21.00;99.90;;;;;;4996911;28;20183;-74
2024/01/05 10:05:32;;;;;;;8.50;2.13;;;20.90;99.90;;;;;;4990921;28;20647;-74
2024/01/05 10:08:01;;;;;;;6.30;1.53;;;20.90;99.90;;;;;;4989790;28;20203;-74
2024/01/05 10:10:48;;;;;;;8.60;1.97;;;20.80;99.90;;;;;;4977431;28;20181;-74
2024/01/05 10:13:17;;;;;;;7.17;1.57;;;20.80;99.90;;;;;;4977157;28;20215;-74
2024/01/05 10:16:02;;;;;;;6.57;1.50;;;20.70;99.90;;;;;;4977172;28;20632;-73
2024/01/05 10:18:31;;;;;;;4.27;1.47;;;20.60;99.90;;;;;;4977308;28;20527;-73
2024/01/05 10:21:10;;;;;;;6.23;1.70;;;20.60;99.90;;;;;;4977319;28;20178;-73
2024/01/05 10:23:44;;;;;;;6.07;1.60;;;20.50;99.90;;;;;;4977270;28;20177;-73
2024/01/05 10:26:20;;;;;;;5.77;2.07;;;20.40;99.90;;;;;;4976971;28;20196;-73
2024/01/05 10:28:49;;;;;;;6.90;1.93;;;20.50;99.90;;;;;;4977155;28;20258;-73
2024/01/05 10:31:18;;;;;;;6.17;1.70;;;20.50;99.90;;;;;;4976826;28;20323;-73
2024/01/05 10:33:54;;;;;;;6.43;1.50;;;20.40;99.90;;;;;;4976807;28;20207;-72
2024/01/05 10:36:22;;;;;;;4.83;2.10;;;20.40;99.90;;;;;;4976654;28;20193;-73
2024/01/05 10:38:51;;;;;;;7.67;1.93;;;20.50;99.90;;;;;;4976474;28;20238;-73
2024/01/05 10:41:23;;;;;;;8.07;1.97;;;20.40;99.90;;;;;;4976627;28;20218;-73
2024/01/05 10:43:51;;;;;;;10.57;2.70;;;20.30;99.90;;;;;;4977116;28;20182;-73
2024/01/05 10:46:20;;;;;;;9.30;2.00;;;20.30;99.90;;;;;;4976605;28;20314;-74
2024/01/05 10:48:48;;;;;;;5.03;1.70;;;20.20;99.90;;;;;;4976835;28;20237;-75
2024/01/05 10:51:20;;;;;;;5.50;2.00;;;20.10;99.90;;;;;;4976492;28;20183;-74
2024/01/05 10:53:52;;;;;;;7.53;2.40;;;20.00;99.90;;;;;;4976419;28;20176;-73
2024/01/05 10:56:21;;;;;;;5.83;1.70;;;20.00;99.90;;;;;;4976260;28;20251;-73
2024/01/05 10:58:52;;;;;;;4.20;1.63;;;20.00;99.90;;;;;;4976513;28;20184;-72
2024/01/05 11:01:20;;;;;;;10.53;2.10;;;19.90;99.90;;;;;;4976400;28;20187;-73
2024/01/05 11:03:52;;;;;;;9.27;1.80;;;19.80;99.90;;;;;;4975380;28;20201;-73
2024/01/05 11:06:20;;;;;;;6.87;1.60;;;19.80;99.90;;;;;;4975988;28;20192;-73
2024/01/05 11:08:57;;;;;;;10.80;1.77;;;19.90;99.90;;;;;;4976262;28;20207;-73
2024/01/05 11:11:46;;;;;;;8.57;1.53;;;19.90;99.90;;;;;;4976077;28;20195;-73
2024/01/05 11:14:30;;;;;;;5.53;1.90;;;20.00;99.90;;;;;;4974811;28;20191;-73
2024/01/05 11:17:25;;;;;;;4.87;2.17;;;20.00;99.90;;;;;;4976326;28;20175;-72
2024/01/05 11:19:58;;;;;;;6.10;1.87;;;20.00;99.90;;;;;;4976327;28;20179;-72
2024/01/05 11:22:37;;;;;;;6.03;2.13;;;19.90;99.90;;;;;;4976260;28;20203;-73
2024/01/05 11:25:06;;;;;;;7.23;1.60;;;19.90;99.90;;;;;;4975972;28;20178;-73
2024/01/05 11:27:36;;;;;;;4.20;1.60;;;19.80;99.90;;;;;;4976077;28;20184;-73
2024/01/05 11:30:04;;;;;;;8.93;2.00;;;19.80;99.90;;;;;;4976000;28;20184;-73
2024/01/05 11:32:39;;;;;;;9.10;3.00;;;19.70;99.90;;;;;;4975785;28;20250;-73
2024/01/05 11:35:21;;;;;;;7.50;3.33;;;19.70;99.90;;;;;;4975818;28;20175;-73
2024/01/05 11:37:49;;;;;;;6.80;2.10;;;19.60;99.90;;;;;;4975924;28;20190;-73
2024/01/05 11:40:34;;;;;;;5.47;1.80;;;19.60;99.90;;;;;;4975447;28;20221;-73
2024/01/05 11:43:37;;;;;;;6.07;1.63;;;19.50;99.90;;;;;;4975557;28;20583;-73
2024/01/05 11:46:06;;;;;;;6.80;1.80;;;19.60;99.90;;;;;;4975516;28;20211;-73
2024/01/05 11:48:36;;;;;;;9.70;2.20;;;19.60;99.90;;;;;;4975353;28;20231;-73
2024/01/05 11:51:08;;;;;;;5.53;1.60;;;19.50;99.90;;;;;;4975493;28;20167;-73
2024/01/05 11:53:36;;;;;;;8.40;1.80;;;19.50;99.90;;;;;;4975487;28;20185;-73
2024/01/05 11:56:14;;;;;;;4.23;1.70;;;19.50;99.90;;;;;;4974885;28;20179;-73
2024/01/05 11:58:43;;;;;;;12.07;2.30;;;19.40;99.90;;;;;;4975101;28;20566;-73
2024/01/05 12:01:11;;;;;;;12.47;3.57;;;19.50;99.90;;;;;;4975065;28;20192;-73
2024/01/05 12:03:40;;;;;;;18.60;11.87;;;19.50;99.90;;;;;;4975127;28;20262;-73
2024/01/05 12:06:12;;;;;;;11.37;5.00;;;19.50;99.90;;;;;;4974950;28;20202;-73
2024/01/05 12:08:40;;;;;;;5.53;2.30;;;19.50;99.90;;;;;;4973662;28;20593;-73
2024/01/05 12:11:09;;;;;;;8.73;2.63;;;19.30;99.90;;;;;;4975184;28;20190;-73
2024/01/05 12:13:38;;;;;;;6.33;3.10;;;19.30;99.90;;;;;;4974769;28;20197;-73
2024/01/05 12:16:08;;;;;;;10.20;2.57;;;19.30;99.90;;;;;;4974420;28;20252;-73
2024/01/05 12:18:55;;;;;;;13.90;2.87;;;19.30;99.90;;;;;;4974886;28;20195;-73
2024/01/05 12:21:23;;;;;;;8.47;2.30;;;19.30;99.90;;;;;;4974720;28;20196;-73
2024/01/05 12:23:53;;;;;;;8.73;2.37;;;19.20;99.90;;;;;;4974821;28;20692;-73
2024/01/05 12:26:21;;;;;;;6.53;2.17;;;19.20;99.90;;;;;;4974842;28;20547;-73
2024/01/05 12:28:50;;;;;;;9.20;2.50;;;19.20;99.90;;;;;;4974573;28;20250;-73
2024/01/05 12:31:18;;;;;;;3.10;1.80;;;19.30;99.90;;;;;;4974673;28;20189;-73
2024/01/05 12:33:46;;;;;;;4.03;1.70;;;19.30;99.90;;;;;;4974615;28;20261;-73
2024/01/05 12:36:27;;;;;;;4.90;2.00;;;19.30;99.90;;;;;;4974546;28;20191;-73
2024/01/05 12:39:06;;;;;;;7.83;2.23;;;19.30;99.90;;;;;;4974626;28;20240;-73
2024/01/05 12:41:34;;;;;;;8.80;2.57;;;19.40;99.90;;;;;;4974633;28;20251;-73
2024/01/05 12:44:03;;;;;;;5.37;2.27;;;19.50;99.90;;;;;;4974661;28;20181;-73
2024/01/05 12:46:30;;;;;;;6.30;2.20;;;19.60;99.90;;;;;;4974674;28;20218;-73
2024/01/05 12:48:58;;;;;;;8.47;2.03;;;19.60;99.90;;;;;;4974525;28;20181;-72
2024/01/05 12:51:26;;;;;;;7.03;2.30;;;19.70;99.90;;;;;;4974371;28;20191;-73
2024/01/05 12:54:04;;;;;;;6.53;2.20;;;19.80;99.90;;;;;;4974236;28;20195;-72